Time;durP1;ratioP1;P1;durP2;ratioP2;P2;SDS_P1;SDS_P2;PMS_P1;PMS_P2;Temp;Humidity;BMP_temperature;BMP_pressure;BME280_temperature;BME280_humidity;BME280_pressure;Samples;Min_cycle;Max_cycle;Signal;HPM_P1;HPM_P2
2023/07/22 07:26:24;;;;;;;2.83;1.55;;;19.60;99.90;;;;;;4759776;23;20293;-71
2023/07/22 07:28:51;;;;;;;5.78;2.22;;;20.20;99.90;;;;;;4900058;29;20550;-71
2023/07/22 07:31:18;;;;;;;3.05;1.42;;;20.80;99.90;;;;;;4899694;29;20634;-71
2023/07/22 07:33:45;;;;;;;3.45;1.40;;;21.10;99.90;;;;;;4894152;29;20220;-71
2023/07/22 07:36:12;;;;;;;2.90;1.40;;;21.80;99.90;;;;;;4895899;29;20214;-70
2023/07/22 07:38:39;;;;;;;2.15;1.27;;;22.00;99.90;;;;;;4900204;29;20651;-72
2023/07/22 07:41:08;;;;;;;4.88;1.70;;;22.00;99.90;;;;;;4899656;29;20555;-71
2023/07/22 07:43:36;;;;;;;3.67;1.77;;;21.90;99.90;;;;;;4900108;29;20237;-70
2023/07/22 07:46:18;;;;;;;4.80;1.67;;;21.90;99.90;;;;;;4900165;29;20636;-71
2023/07/22 07:48:46;;;;;;;3.50;1.50;;;21.80;99.90;;;;;;4899649;29;20665;-72
2023/07/22 07:51:14;;;;;;;2.80;1.35;;;21.80;99.90;;;;;;4899913;29;20278;-72
2023/07/22 07:53:41;;;;;;;4.80;1.70;;;22.00;99.90;;;;;;4899576;29;20261;-71
2023/07/22 07:56:09;;;;;;;5.60;1.65;;;22.20;99.90;;;;;;4900030;29;20206;-71
2023/07/22 07:58:37;;;;;;;3.15;1.55;;;22.70;99.90;;;;;;4900148;29;20206;-76
2023/07/22 08:01:05;;;;;;;3.42;1.50;;;23.10;99.90;;;;;;4899639;29;20214;-75
2023/07/22 08:03:32;;;;;;;3.22;1.30;;;23.00;99.90;;;;;;4899592;29;20705;-76
2023/07/22 08:05:58;;;;;;;2.42;1.02;;;22.50;99.90;;;;;;4900053;29;20237;-74
2023/07/22 08:08:25;;;;;;;3.83;1.77;;;22.10;99.90;;;;;;4899763;29;20291;-77
2023/07/22 08:10:59;;;;;;;8.40;1.67;;;21.80;99.90;;;;;;4899551;29;20222;-75
2023/07/22 08:13:26;;;;;;;2.30;1.10;;;21.40;99.90;;;;;;4896461;29;20218;-71
2023/07/22 08:15:54;;;;;;;2.53;1.40;;;21.30;99.90;;;;;;4899266;29;20245;-76
2023/07/22 08:18:21;;;;;;;2.63;1.40;;;21.30;99.90;;;;;;4899298;29;20216;-75
2023/07/22 08:20:48;;;;;;;3.20;1.10;;;21.10;99.90;;;;;;4899484;29;20296;-73
2023/07/22 08:23:15;;;;;;;4.28;1.60;;;21.40;99.90;;;;;;4899080;29;20266;-73
2023/07/22 08:25:42;;;;;;;4.53;1.38;;;21.10;99.90;;;;;;4899087;29;20217;-73
2023/07/22 08:28:09;;;;;;;4.03;1.33;;;21.20;99.90;;;;;;4898925;29;20210;-69
2023/07/22 08:30:36;;;;;;;2.30;1.17;;;21.30;99.90;;;;;;4898606;29;20213;-69
2023/07/22 08:33:04;;;;;;;3.33;1.30;;;21.10;99.90;;;;;;4898298;29;20231;-70
2023/07/22 08:35:31;;;;;;;4.63;1.35;;;21.30;99.90;;;;;;4898676;29;20206;-69
2023/07/22 08:37:58;;;;;;;3.17;1.45;;;21.40;99.90;;;;;;4898477;29;20661;-70
2023/07/22 08:40:24;;;;;;;2.03;1.13;;;21.80;99.90;;;;;;4898366;29;20217;-69
2023/07/22 08:42:52;;;;;;;3.22;1.08;;;22.30;99.90;;;;;;4897857;29;20709;-68
2023/07/22 08:45:20;;;;;;;3.65;1.50;;;22.10;99.90;;;;;;4898106;29;20301;-70
2023/07/22 08:47:50;;;;;;;2.15;1.30;;;21.90;99.90;;;;;;4898857;29;20226;-71
2023/07/22 08:50:22;;;;;;;2.03;1.05;;;21.60;99.90;;;;;;4898551;29;20216;-69
2023/07/22 08:52:50;;;;;;;3.92;1.33;;;21.50;99.90;;;;;;4897552;29;20248;-70
2023/07/22 08:55:17;;;;;;;4.05;1.15;;;21.50;99.90;;;;;;4898544;29;20218;-71
2023/07/22 08:57:44;;;;;;;2.95;0.93;;;21.80;99.90;;;;;;4898547;29;20304;-70
2023/07/22 09:00:12;;;;;;;1.98;1.02;;;22.30;99.90;;;;;;4898721;29;20206;-70
2023/07/22 09:02:40;;;;;;;2.92;1.00;;;22.20;99.90;;;;;;4898772;29;20238;-70
2023/07/22 09:05:09;;;;;;;3.70;1.02;;;22.20;99.90;;;;;;4898828;29;20686;-70
2023/07/22 09:07:38;;;;;;;3.65;1.23;;;22.00;99.90;;;;;;4898857;29;20214;-69
2023/07/22 09:10:07;;;;;;;5.82;1.10;;;22.00;99.90;;;;;;4898772;29;20574;-69
2023/07/22 09:12:39;;;;;;;2.17;0.90;;;22.00;99.90;;;;;;4898481;29;20294;-69
2023/07/22 09:15:10;;;;;;;2.25;0.80;;;22.00;99.90;;;;;;4898876;29;20213;-72
2023/07/22 09:17:37;;;;;;;2.55;1.20;;;22.40;99.90;;;;;;4898691;29;20289;-70
2023/07/22 09:20:05;;;;;;;1.67;1.00;;;22.70;99.90;;;;;;4898834;29;20569;-70
2023/07/22 09:22:32;;;;;;;2.40;0.80;;;23.20;99.90;;;;;;4898252;29;20764;-70
2023/07/22 09:25:15;;;;;;;1.33;0.93;;;23.50;99.90;;;;;;4898493;29;20726;-70
2023/07/22 09:27:43;;;;;;;2.35;0.90;;;23.90;99.90;;;;;;4898435;29;20214;-70
2023/07/22 09:30:25;;;;;;;2.03;1.00;;;24.20;99.90;;;;;;4898714;29;20269;-70
2023/07/22 09:32:53;;;;;;;3.97;1.10;;;24.60;99.90;;;;;;4898180;29;20708;-69
2023/07/22 09:35:20;;;;;;;2.50;0.70;;;25.00;99.90;;;;;;4898262;29;20292;-70
2023/07/22 09:37:47;;;;;;;1.35;0.73;;;25.20;99.90;;;;;;4898058;29;20298;-70
2023/07/22 09:40:20;;;;;;;1.35;0.80;;;25.20;99.90;;;;;;4898275;29;20213;-69
2023/07/22 09:42:49;;;;;;;1.17;0.88;;;25.40;99.90;;;;;;4897739;29;20671;-70
2023/07/22 09:45:16;;;;;;;1.20;0.68;;;25.20;99.90;;;;;;4897908;29;20221;-69
2023/07/22 09:47:44;;;;;;;2.10;1.02;;;24.50;99.80;;;;;;4898099;29;20214;-69
2023/07/22 09:50:16;;;;;;;1.55;0.88;;;24.00;99.90;;;;;;4898053;29;20209;-69
2023/07/22 09:52:46;;;;;;;2.83;0.85;;;23.70;99.90;;;;;;4898240;29;20238;-69
2023/07/22 09:55:13;;;;;;;1.10;0.70;;;23.60;99.90;;;;;;4898039;29;20217;-70
2023/07/22 09:57:45;;;;;;;2.15;0.70;;;23.30;99.90;;;;;;4897882;29;20206;-69
2023/07/22 10:00:14;;;;;;;1.05;0.77;;;23.40;99.90;;;;;;4897653;29;20741;-69
2023/07/22 10:02:42;;;;;;;2.00;0.70;;;23.40;99.90;;;;;;4897400;29;20293;-69
2023/07/22 10:05:15;;;;;;;0.98;0.70;;;23.70;99.90;;;;;;4897821;29;20239;-70
2023/07/22 10:07:45;;;;;;;1.27;0.70;;;23.70;99.90;;;;;;4897851;29;20221;-70
2023/07/22 10:10:13;;;;;;;1.83;0.93;;;23.60;99.90;;;;;;4897713;29;20237;-70
2023/07/22 10:12:43;;;;;;;2.00;0.77;;;23.60;99.90;;;;;;4897427;29;20234;-70
2023/07/22 10:15:11;;;;;;;1.88;0.90;;;23.20;99.90;;;;;;4897788;29;20274;-70
2023/07/22 10:17:38;;;;;;;1.90;0.80;;;23.20;99.90;;;;;;4897806;29;20217;-70
2023/07/22 10:20:09;;;;;;;2.28;0.88;;;23.20;99.90;;;;;;4897688;29;20242;-69
2023/07/22 10:22:37;;;;;;;1.00;0.70;;;23.10;99.50;;;;;;4897396;29;20241;-69
2023/07/22 10:25:06;;;;;;;0.88;0.60;;;22.90;99.60;;;;;;4897553;29;20708;-69
2023/07/22 10:27:34;;;;;;;2.65;0.80;;;23.10;99.70;;;;;;4897501;29;20237;-69
2023/07/22 10:30:03;;;;;;;1.48;0.80;;;23.00;99.60;;;;;;4897867;29;20319;-70
2023/07/22 10:32:35;;;;;;;0.60;0.60;;;22.90;99.90;;;;;;4897899;29;20245;-70
2023/07/22 10:35:03;;;;;;;0.52;0.43;;;23.10;99.90;;;;;;4897697;29;20207;-69
2023/07/22 10:37:33;;;;;;;0.98;0.55;;;23.20;98.80;;;;;;4897629;29;20306;-69
2023/07/22 10:40:02;;;;;;;1.50;0.70;;;23.20;98.80;;;;;;4897779;29;20229;-70
2023/07/22 10:42:32;;;;;;;2.05;0.85;;;23.30;99.20;;;;;;4897682;29;20234;-71
2023/07/22 10:45:02;;;;;;;1.45;0.70;;;23.40;98.70;;;;;;4897809;29;20206;-71
2023/07/22 10:47:34;;;;;;;1.55;0.60;;;23.40;98.40;;;;;;4897344;29;20559;-73
2023/07/22 10:50:07;;;;;;;1.70;0.70;;;23.30;97.40;;;;;;4897560;29;20677;-70
2023/07/22 10:52:46;;;;;;;0.63;0.50;;;23.20;98.10;;;;;;4897186;29;20756;-70
2023/07/22 10:55:18;;;;;;;0.93;0.50;;;23.20;97.30;;;;;;4897031;29;20213;-70
2023/07/22 10:57:54;;;;;;;1.50;0.70;;;22.90;97.50;;;;;;4896995;29;20214;-70
2023/07/22 11:00:22;;;;;;;1.60;0.60;;;22.90;98.00;;;;;;4897363;29;20309;-70
2023/07/22 11:03:10;;;;;;;1.08;0.63;;;23.10;98.30;;;;;;4897016;29;20237;-71
2023/07/22 11:05:52;;;;;;;0.82;0.50;;;23.10;98.30;;;;;;4897479;29;20211;-71
2023/07/22 11:08:37;;;;;;;0.90;0.63;;;23.30;98.10;;;;;;4897515;29;20354;-71
2023/07/22 11:11:05;;;;;;;1.10;0.70;;;23.30;98.20;;;;;;4897309;29;20221;-71
2023/07/22 11:13:39;;;;;;;1.50;0.82;;;23.50;98.60;;;;;;4897033;29;20210;-70
2023/07/22 11:16:10;;;;;;;2.95;1.00;;;23.70;98.20;;;;;;4899377;29;20669;-71
2023/07/22 11:18:38;;;;;;;1.40;0.70;;;23.80;98.20;;;;;;4900748;29;20744;-70
2023/07/22 11:21:11;;;;;;;1.42;0.57;;;23.60;98.00;;;;;;4900660;29;20644;-70
2023/07/22 11:23:38;;;;;;;2.42;0.65;;;23.60;98.60;;;;;;4900478;29;20240;-73
2023/07/22 11:26:05;;;;;;;3.13;0.80;;;23.70;99.10;;;;;;4900270;29;20218;-74
2023/07/22 11:28:32;;;;;;;2.97;0.73;;;23.90;98.30;;;;;;4900395;29;20210;-71
2023/07/22 11:31:00;;;;;;;1.50;0.80;;;24.20;98.60;;;;;;4900214;29;20216;-71
2023/07/22 11:33:38;;;;;;;1.08;0.70;;;24.30;97.30;;;;;;4900374;29;20772;-71
2023/07/22 11:36:05;;;;;;;0.77;0.65;;;24.10;98.00;;;;;;4900519;29;20213;-74
2023/07/22 11:38:33;;;;;;;1.20;0.88;;;24.10;97.50;;;;;;4899969;29;20214;-73
2023/07/22 11:41:00;;;;;;;2.55;1.00;;;24.00;97.30;;;;;;4900379;29;20547;-73
2023/07/22 11:43:27;;;;;;;2.08;0.98;;;24.00;97.40;;;;;;4900012;29;20241;-72
2023/07/22 11:45:54;;;;;;;1.58;0.90;;;24.00;97.70;;;;;;4899637;29;20711;-71
2023/07/22 11:48:21;;;;;;;1.17;0.70;;;23.90;98.00;;;;;;4900121;29;20220;-70
2023/07/22 11:50:48;;;;;;;1.92;0.80;;;23.70;97.30;;;;;;4900063;29;20670;-70
2023/07/22 11:53:15;;;;;;;2.25;0.88;;;23.70;97.20;;;;;;4899686;29;20576;-74
2023/07/22 11:55:44;;;;;;;2.28;1.00;;;23.60;97.90;;;;;;4900122;29;20222;-70
2023/07/22 11:58:11;;;;;;;1.02;0.77;;;23.60;97.40;;;;;;4899897;29;20680;-71
2023/07/22 12:00:38;;;;;;;2.00;1.05;;;23.50;96.80;;;;;;4900243;29;20223;-73
2023/07/22 12:03:08;;;;;;;1.20;0.73;;;23.40;96.70;;;;;;4899706;29;20321;-72
2023/07/22 12:05:37;;;;;;;1.50;0.80;;;23.60;97.00;;;;;;4899847;29;20581;-72
2023/07/22 12:08:06;;;;;;;1.70;0.70;;;23.70;97.00;;;;;;4900028;29;20278;-71
2023/07/22 12:10:33;;;;;;;2.30;0.80;;;23.60;96.40;;;;;;4899843;29;20574;-71
2023/07/22 12:13:03;;;;;;;1.58;0.82;;;23.70;96.40;;;;;;4899772;29;20256;-73
2023/07/22 12:15:30;;;;;;;2.00;0.80;;;23.90;97.20;;;;;;4899861;29;20206;-70
2023/07/22 12:17:59;;;;;;;1.90;1.00;;;23.80;96.60;;;;;;4899616;29;20210;-70
2023/07/22 12:20:27;;;;;;;0.88;0.70;;;23.90;96.20;;;;;;4900094;29;20405;-74
2023/07/22 12:22:55;;;;;;;1.45;0.90;;;23.90;96.10;;;;;;4899662;29;20245;-71
2023/07/22 12:25:22;;;;;;;0.88;0.70;;;23.60;96.00;;;;;;4899374;29;20245;-72
2023/07/22 12:27:49;;;;;;;0.80;0.60;;;23.60;97.10;;;;;;4898235;29;20673;-73
2023/07/22 12:30:18;;;;;;;0.82;0.57;;;23.80;96.30;;;;;;4899435;29;20211;-73
2023/07/22 12:32:45;;;;;;;2.45;0.60;;;23.90;95.60;;;;;;4899540;29;20256;-72
2023/07/22 12:35:13;;;;;;;1.40;0.93;;;23.60;94.80;;;;;;4899384;29;20569;-72
2023/07/22 12:37:40;;;;;;;1.40;0.70;;;23.40;95.80;;;;;;4899042;29;20220;-72
2023/07/22 12:40:08;;;;;;;1.13;0.80;;;23.50;96.80;;;;;;4899144;29;20206;-70
2023/07/22 12:42:35;;;;;;;1.92;0.80;;;23.80;96.10;;;;;;4898945;29;20237;-73
2023/07/22 12:45:02;;;;;;;0.82;0.70;;;23.90;95.60;;;;;;4899025;29;20242;-73
2023/07/22 12:47:31;;;;;;;1.90;0.73;;;23.80;96.00;;;;;;4899345;29;20313;-73
2023/07/22 12:49:57;;;;;;;1.77;0.77;;;23.50;96.10;;;;;;4895378;29;20216;-71
